Europa — C6QK8 — position and weather

sailwx.info

Track history (hours):
 
Tides and Currents Weather Stations Pressure Air Temp Water Temp Dewpoint Dewpoint Depression Visibility Wind Speed Wind Dir Waves Ship Positions

Europa

Operator: Hapag-Lloyd Container Line

Last reported at 2017-Jul-21 18:49 UTC. Time now 2017-Jul-22 12:43 UTC.
Position N 47°36' W 051°47'.

Length 199 m; draft 6.3 m.

Type: Passenger vessel. MMSI: 308007000.

Date/timePositionNaut miles runAvg speedWind from/ knotsBaromVisibWave heightAir tempDewpointWater temp
2017-Jul-21 18:49N 47°36' W 051°47'819.3
2017-Jul-21 18:24N 47°35' W 051°59'819.5
2017-Jul-21 17:59N 47°35' W 052°12'1019.5
2017-Jul-21 17:29N 47°34' W 052°26'917.3
2017-Jul-21 16:58N 47°34' W 052°39'2 4.3
2017-Jul-21 16:28N 47°34' W 052°42'0 0.0
2017-Jul-21 15:55N 47°34' W 052°42'0 0.0
2017-Jul-21 15:25N 47°34' W 052°42'0 0.0
2017-Jul-21 14:55N 47°34' W 052°42'0 0.0
2017-Jul-21 14:22N 47°34' W 052°42'0 0.0
2017-Jul-21 13:52N 47°34' W 052°42'0 0.0
2017-Jul-21 13:25N 47°34' W 052°42'0 0.0
2017-Jul-21 12:55N 47°34' W 052°42'0 0.0
2017-Jul-21 12:25N 47°34' W 052°42'0 0.0
2017-Jul-21 11:55N 47°34' W 052°42'0 0.0
2017-Jul-21 11:25N 47°34' W 052°42'0 0.0
2017-Jul-21 10:55N 47°34' W 052°42'0 0.0
2017-Jul-21 10:25N 47°34' W 052°42'0 0.0
2017-Jul-21 09:59N 47°34' W 052°42'1 1.6
2017-Jul-21 09:28N 47°34' W 052°41'4 7.9
2017-Jul-21 08:58N 47°33' W 052°35'713.7
2017-Jul-21 08:27N 47°26' W 052°35'713.3
2017-Jul-21 07:57N 47°20' W 052°36'713.2
2017-Jul-21 07:26N 47°13' W 052°38'  
2017-Jul-16 23:18N 45°45' W 073°24'813.6
2017-Jul-16 22:44N 45°38' W 073°30'312.8
2017-Jul-16 22:28N 45°34' W 073°30'3 0.3
2017-Jul-16 10:31N 45°32' W 073°32'1 5.9
2017-Jul-16 10:21N 45°33' W 073°32'3 7.3
2017-Jul-16 09:59N 45°35' W 073°30'5 7.7
2017-Jul-16 09:19N 45°40' W 073°28'3 9.3
2017-Jul-16 09:00N 45°43' W 073°26'12 9.5
2017-Jul-16 07:43N 45°52' W 073°15'  
Track history (hours):
 
Tides and Currents Weather Stations Pressure Air Temp Water Temp Dewpoint Dewpoint Depression Visibility Wind Speed Wind Dir Waves Ship Positions

Europa

Operator: Hapag-Lloyd Container Line

Last reported at 2017-Jul-21 18:49 UTC. Time now 2017-Jul-22 12:43 UTC.
Position N 47°36' W 051°47'.

Length 199 m; draft 6.3 m.

Type: Passenger vessel. MMSI: 308007000.

Date/timePositionNaut miles runAvg speedWind from/ knotsBaromVisibWave heightAir tempDewpointWater temp
2017-Jul-21 18:49N 47°36' W 051°47'819.3
2017-Jul-21 18:24N 47°35' W 051°59'819.5
2017-Jul-21 17:59N 47°35' W 052°12'1019.5
2017-Jul-21 17:29N 47°34' W 052°26'917.3
2017-Jul-21 16:58N 47°34' W 052°39'2 4.3
2017-Jul-21 16:28N 47°34' W 052°42'0 0.0
2017-Jul-21 15:55N 47°34' W 052°42'0 0.0
2017-Jul-21 15:25N 47°34' W 052°42'0 0.0
2017-Jul-21 14:55N 47°34' W 052°42'0 0.0
2017-Jul-21 14:22N 47°34' W 052°42'0 0.0
2017-Jul-21 13:52N 47°34' W 052°42'0 0.0
2017-Jul-21 13:25N 47°34' W 052°42'0 0.0
2017-Jul-21 12:55N 47°34' W 052°42'0 0.0
2017-Jul-21 12:25N 47°34' W 052°42'0 0.0
2017-Jul-21 11:55N 47°34' W 052°42'0 0.0
2017-Jul-21 11:25N 47°34' W 052°42'0 0.0
2017-Jul-21 10:55N 47°34' W 052°42'0 0.0
2017-Jul-21 10:25N 47°34' W 052°42'0 0.0
2017-Jul-21 09:59N 47°34' W 052°42'1 1.6
2017-Jul-21 09:28N 47°34' W 052°41'4 7.9
2017-Jul-21 08:58N 47°33' W 052°35'713.7
2017-Jul-21 08:27N 47°26' W 052°35'713.3
2017-Jul-21 07:57N 47°20' W 052°36'713.2
2017-Jul-21 07:26N 47°13' W 052°38'  
2017-Jul-16 23:18N 45°45' W 073°24'813.6
2017-Jul-16 22:44N 45°38' W 073°30'312.8
2017-Jul-16 22:28N 45°34' W 073°30'3 0.3
2017-Jul-16 10:31N 45°32' W 073°32'1 5.9
2017-Jul-16 10:21N 45°33' W 073°32'3 7.3
2017-Jul-16 09:59N 45°35' W 073°30'5 7.7
2017-Jul-16 09:19N 45°40' W 073°28'3 9.3
2017-Jul-16 09:00N 45°43' W 073°26'12 9.5
2017-Jul-16 07:43N 45°52' W 073°15'  

Dump ship's entire track history